createdAt,value
2023-10-14T00:00:38.625Z,95021.56
2023-10-14T00:02:41.619Z,95026.47
2023-10-14T00:04:47.226Z,95030.31
2023-10-14T00:06:50.144Z,95033.72
2023-10-14T00:09:03.864Z,95024.25
2023-10-14T00:11:09.098Z,95025.41
2023-10-14T00:13:12.122Z,95020.13
2023-10-14T00:15:14.365Z,95021.16
2023-10-14T00:17:20.544Z,95012.59
2023-10-14T00:19:24.385Z,95020.34
2023-10-14T00:21:28.487Z,95013.97
2023-10-14T00:23:32.215Z,95012.34
2023-10-14T00:25:35.668Z,95008.84
2023-10-14T00:27:38.514Z,95014.50
2023-10-14T00:29:40.483Z,95010.22
2023-10-14T00:31:46.666Z,95006.13
2023-10-14T00:33:49.288Z,95004.22
2023-10-14T00:35:56.810Z,95007.13
2023-10-14T00:38:09.604Z,95006.19
2023-10-14T00:40:24.081Z,95011.03
2023-10-14T00:42:26.000Z,95004.97
2023-10-14T00:44:27.937Z,95002.41
2023-10-14T00:46:33.412Z,95013.72
2023-10-14T00:48:41.592Z,95008.56
2023-10-14T00:50:43.545Z,95006.91
2023-10-14T00:52:45.753Z,95004.53
2023-10-14T00:55:00.325Z,95001.34
2023-10-14T00:57:21.568Z,94992.91
2023-10-14T00:59:24.303Z,94994.84
2023-10-14T01:01:32.435Z,94993.66
2023-10-14T01:03:36.249Z,94982.25
2023-10-14T01:05:37.973Z,94990.53
2023-10-14T01:07:41.184Z,94981.06
2023-10-14T01:09:46.556Z,94983.28
2023-10-14T01:11:48.485Z,94982.34
2023-10-14T01:13:52.543Z,94973.03
2023-10-14T01:16:10.238Z,94981.16
2023-10-14T01:18:16.207Z,94973.66
2023-10-14T01:20:19.087Z,94974.22
2023-10-14T01:22:21.357Z,94969.66
2023-10-14T01:24:23.578Z,94972.78
2023-10-14T01:26:29.058Z,94970.59
2023-10-14T01:28:31.713Z,94963.78
2023-10-14T01:30:40.190Z,94965.03
2023-10-14T01:32:51.229Z,94951.69
2023-10-14T01:35:00.969Z,94953.03
2023-10-14T01:37:14.398Z,94960.78
2023-10-14T01:39:23.486Z,94959.59
2023-10-14T01:41:26.642Z,94956.78
2023-10-14T01:43:32.268Z,94962.22
2023-10-14T01:45:41.473Z,94955.78
2023-10-14T01:47:49.421Z,94958.06
2023-10-14T01:49:53.352Z,94960.06
2023-10-14T01:51:57.947Z,94963.69
2023-10-14T01:54:00.326Z,94964.69
2023-10-14T01:56:03.313Z,94955.13
2023-10-14T01:58:10.156Z,94960.16
2023-10-14T02:00:37.733Z,94961.13
2023-10-14T02:02:41.158Z,94959.13
2023-10-14T02:04:47.277Z,94955.84
2023-10-14T02:07:04.454Z,94964.41
2023-10-14T02:09:06.794Z,94952.69
2023-10-14T02:11:09.586Z,94952.50
2023-10-14T02:13:13.810Z,94947.22
2023-10-14T02:15:16.141Z,94954.31
2023-10-14T02:17:18.473Z,94952.69
2023-10-14T02:19:23.706Z,94949.69
2023-10-14T02:21:29.230Z,94947.84
2023-10-14T02:23:46.213Z,94947.84
2023-10-14T02:25:57.387Z,94946.94
2023-10-14T02:27:59.644Z,94946.47
2023-10-14T02:30:02.054Z,94939.66
2023-10-14T02:32:04.533Z,94943.13
2023-10-14T02:34:09.893Z,94942.47
2023-10-14T02:36:17.904Z,94937.41
2023-10-14T02:38:19.710Z,94939.91
2023-10-14T02:40:26.955Z,94939.19
2023-10-14T02:42:28.807Z,94940.00
2023-10-14T02:44:35.330Z,94941.16
2023-10-14T02:46:45.337Z,94932.31
2023-10-14T02:48:54.626Z,94938.59
2023-10-14T02:50:58.326Z,94941.50
2023-10-14T02:53:08.278Z,94947.91
2023-10-14T02:55:24.206Z,94944.72
2023-10-14T02:57:28.136Z,94943.25
2023-10-14T02:59:43.523Z,94941.63
2023-10-14T03:01:46.285Z,94938.16
2023-10-14T03:03:48.685Z,94928.97
2023-10-14T03:05:53.760Z,94931.97
2023-10-14T03:07:55.788Z,94933.13
2023-10-14T03:10:19.903Z,94930.31
2023-10-14T03:12:24.838Z,94929.34
2023-10-14T03:14:26.606Z,94932.16
2023-10-14T03:16:29.537Z,94939.59
2023-10-14T03:18:42.786Z,94941.13
2023-10-14T03:21:07.648Z,94941.47
2023-10-14T03:23:15.018Z,94933.25
2023-10-14T03:25:25.063Z,94943.00
2023-10-14T03:27:26.907Z,94939.00
2023-10-14T03:29:30.247Z,94944.28
2023-10-14T03:31:37.550Z,94936.19
2023-10-14T03:33:45.498Z,94936.03
2023-10-14T03:36:10.261Z,94939.13
2023-10-14T03:38:27.492Z,94942.28
2023-10-14T03:40:35.326Z,94941.00
2023-10-14T03:42:37.100Z,94940.84
2023-10-14T03:44:43.233Z,94940.75
2023-10-14T03:46:45.279Z,94931.84
2023-10-14T03:48:48.433Z,94939.88
2023-10-14T03:50:51.716Z,94936.69
2023-10-14T03:52:57.196Z,94929.31
2023-10-14T03:54:59.142Z,94924.84
2023-10-14T03:57:04.534Z,94932.84
2023-10-14T03:59:07.857Z,94926.78
2023-10-14T04:01:09.819Z,94926.78
2023-10-14T04:03:15.442Z,94921.19
2023-10-14T04:05:20.430Z,94912.63
2023-10-14T04:07:29.896Z,94922.72
2023-10-14T04:09:39.672Z,94919.91
2023-10-14T04:11:41.937Z,94919.06
2023-10-14T04:14:00.387Z,94922.25
2023-10-14T04:16:02.231Z,94919.66
2023-10-14T04:18:13.681Z,94920.19
2023-10-14T04:20:38.252Z,94922.19
2023-10-14T04:22:42.896Z,94911.66
2023-10-14T04:24:47.680Z,94912.13
2023-10-14T04:26:51.002Z,94911.09
2023-10-14T04:28:55.951Z,94911.41
2023-10-14T04:31:02.399Z,94914.06
2023-10-14T04:33:04.527Z,94912.59
2023-10-14T04:35:06.987Z,94918.38
2023-10-14T04:37:09.800Z,94918.75
2023-10-14T04:39:15.889Z,94915.63
2023-10-14T04:41:25.765Z,94916.16
2023-10-14T04:43:27.530Z,94923.47
2023-10-14T04:45:33.357Z,94925.47
2023-10-14T04:47:38.355Z,94924.19
2023-10-14T04:49:43.402Z,94923.72
2023-10-14T04:51:48.337Z,94926.34
2023-10-14T04:53:53.589Z,94920.72
2023-10-14T04:55:56.106Z,94920.72
2023-10-14T04:58:08.915Z,94919.09
2023-10-14T05:00:21.340Z,94919.25
2023-10-14T05:02:24.833Z,94926.09
2023-10-14T05:04:32.654Z,94927.75
2023-10-14T05:06:43.193Z,94926.22
2023-10-14T05:08:46.955Z,94924.06
2023-10-14T05:10:54.146Z,94921.25
2023-10-14T05:12:56.804Z,94921.75
2023-10-14T05:14:58.766Z,94925.28
2023-10-14T05:17:06.456Z,94926.22
2023-10-14T05:19:12.888Z,94929.97
2023-10-14T05:21:35.292Z,94928.47
2023-10-14T05:23:39.882Z,94928.13
2023-10-14T05:25:45.556Z,94936.31
2023-10-14T05:27:47.834Z,94932.97
2023-10-14T05:29:53.746Z,94936.72
2023-10-14T05:32:11.586Z,94938.00
2023-10-14T05:34:15.037Z,94939.06
2023-10-14T05:36:16.877Z,94940.53
2023-10-14T05:38:20.677Z,94936.38
2023-10-14T05:40:23.327Z,94946.03
2023-10-14T05:42:28.341Z,94950.13
2023-10-14T05:44:30.338Z,94942.75
2023-10-14T05:46:32.262Z,94945.03
2023-10-14T05:48:35.087Z,94950.22
2023-10-14T05:50:36.903Z,94952.78
2023-10-14T05:52:39.701Z,94956.16
2023-10-14T05:54:47.157Z,94957.59
2023-10-14T05:56:52.723Z,94958.69
2023-10-14T05:58:55.186Z,94955.94
2023-10-14T06:00:58.193Z,94961.31
2023-10-14T06:03:00.936Z,94961.59
2023-10-14T06:05:03.514Z,94966.59
2023-10-14T06:07:05.556Z,94965.44
2023-10-14T06:09:09.687Z,94959.59
2023-10-14T06:11:13.939Z,94956.38
2023-10-14T06:13:16.365Z,94955.66
2023-10-14T06:15:20.704Z,94950.16
2023-10-14T06:17:23.151Z,94957.34
2023-10-14T06:19:25.942Z,94958.03
2023-10-14T06:21:28.994Z,94959.59
2023-10-14T06:23:31.149Z,94959.94
2023-10-14T06:25:34.023Z,94958.53
2023-10-14T06:27:35.909Z,94952.06
2023-10-14T06:29:38.476Z,94947.44
2023-10-14T06:31:41.879Z,94950.31
2023-10-14T06:33:45.223Z,94952.22
2023-10-14T06:35:55.600Z,94951.91
2023-10-14T06:38:00.203Z,94953.25
2023-10-14T06:40:03.993Z,94951.38
2023-10-14T06:42:06.474Z,94951.09
2023-10-14T06:44:10.530Z,94943.28
2023-10-14T06:46:18.218Z,94949.25
2023-10-14T06:48:22.595Z,94948.19
2023-10-14T06:50:28.184Z,94941.84
2023-10-14T06:52:31.691Z,94945.03
2023-10-14T06:54:37.449Z,94944.34
2023-10-14T06:56:41.549Z,94950.94
2023-10-14T06:58:46.013Z,94940.13
2023-10-14T07:00:49.819Z,94938.78
2023-10-14T07:02:51.590Z,94940.06
2023-10-14T07:04:53.578Z,94939.28
2023-10-14T07:07:00.279Z,94931.25
2023-10-14T07:09:11.464Z,94943.91
2023-10-14T07:11:13.284Z,94929.38
2023-10-14T07:13:15.425Z,94931.50
2023-10-14T07:15:17.517Z,94928.66
2023-10-14T07:17:24.254Z,94929.97
2023-10-14T07:19:27.185Z,94927.97
2023-10-14T07:21:30.558Z,94928.94
2023-10-14T07:23:38.015Z,94939.00
2023-10-14T07:25:44.330Z,94917.94
2023-10-14T07:27:52.861Z,94916.00
2023-10-14T07:29:55.377Z,94909.94
2023-10-14T07:31:57.441Z,94912.91
2023-10-14T07:34:10.338Z,94914.75
2023-10-14T07:36:13.303Z,94912.56
2023-10-14T07:38:16.448Z,94908.34
2023-10-14T07:40:25.628Z,94914.97
2023-10-14T07:42:28.344Z,94909.09
2023-10-14T07:44:30.125Z,94906.28
2023-10-14T07:46:32.103Z,94906.47
2023-10-14T07:48:34.047Z,94906.09
2023-10-14T07:50:40.239Z,94907.94
2023-10-14T07:52:43.989Z,94897.31
2023-10-14T07:54:47.564Z,94897.31
2023-10-14T07:56:49.599Z,94894.66
2023-10-14T07:58:55.392Z,94889.97
2023-10-14T08:00:58.114Z,94887.34
2023-10-14T08:03:07.624Z,94884.25
2023-10-14T08:05:10.702Z,94890.19
2023-10-14T08:07:13.042Z,94887.13
2023-10-14T08:09:29.231Z,94884.69
2023-10-14T08:11:37.924Z,94884.50
2023-10-14T08:13:41.904Z,94883.66
2023-10-14T08:15:44.126Z,94880.56
2023-10-14T08:17:47.271Z,94880.97
2023-10-14T08:19:49.312Z,94878.09
2023-10-14T08:21:54.896Z,94877.81
2023-10-14T08:23:59.520Z,94880.00
2023-10-14T08:26:04.800Z,94878.72
2023-10-14T08:28:07.684Z,94876.59
2023-10-14T08:30:12.939Z,94873.88
2023-10-14T08:32:15.878Z,94866.22
2023-10-14T08:34:17.702Z,94861.66
2023-10-14T08:36:19.745Z,94851.72
2023-10-14T08:38:23.844Z,94852.88
2023-10-14T08:40:28.081Z,94849.16
2023-10-14T08:42:30.646Z,94849.84
2023-10-14T08:44:33.187Z,94837.50
2023-10-14T08:46:37.321Z,94845.63
2023-10-14T08:48:40.202Z,94840.06
2023-10-14T08:50:43.007Z,94844.22
2023-10-14T08:52:46.806Z,94841.81
2023-10-14T08:54:50.636Z,94842.34
2023-10-14T08:56:52.901Z,94833.44
2023-10-14T08:58:56.149Z,94827.69
2023-10-14T09:00:59.481Z,94825.00
2023-10-14T09:03:03.457Z,94829.56
2023-10-14T09:05:05.820Z,94828.22
2023-10-14T09:07:14.911Z,94825.44
2023-10-14T09:09:19.141Z,94825.63
2023-10-14T09:11:29.303Z,94818.38
2023-10-14T09:13:35.388Z,94819.41
2023-10-14T09:15:41.996Z,94814.94
2023-10-14T09:17:44.617Z,94812.22
2023-10-14T09:19:50.715Z,94810.13
2023-10-14T09:21:59.012Z,94808.34
2023-10-14T09:24:09.926Z,94799.88
2023-10-14T09:26:14.375Z,94793.13
2023-10-14T09:28:18.933Z,94793.41
2023-10-14T09:30:21.473Z,94783.88
2023-10-14T09:32:23.313Z,94784.53
2023-10-14T09:34:25.782Z,94777.56
2023-10-14T09:36:27.986Z,94776.53
2023-10-14T09:38:33.743Z,94777.31
2023-10-14T09:40:36.969Z,94765.41
2023-10-14T09:42:39.303Z,94760.47
2023-10-14T09:44:46.978Z,94756.16
2023-10-14T09:46:49.640Z,94751.84
2023-10-14T09:48:52.536Z,94749.28
2023-10-14T09:51:02.342Z,94742.66
2023-10-14T09:53:09.890Z,94735.34
2023-10-14T09:55:16.263Z,94743.66
2023-10-14T09:57:18.899Z,94737.72
2023-10-14T09:59:22.785Z,94736.41
2023-10-14T10:01:26.875Z,94728.69
2023-10-14T10:03:33.532Z,94721.84
2023-10-14T10:05:40.996Z,94720.50
2023-10-14T10:08:20.225Z,94716.81
2023-10-14T10:10:40.161Z,94708.66
2023-10-14T10:12:43.075Z,94705.44
2023-10-14T10:14:45.383Z,94704.34
2023-10-14T10:16:50.709Z,94702.03
2023-10-14T10:19:00.892Z,94696.34
2023-10-14T10:21:03.446Z,94691.38
2023-10-14T10:23:08.286Z,94682.53
2023-10-14T10:25:12.987Z,94683.53
2023-10-14T10:27:18.504Z,94678.69
2023-10-14T10:29:24.001Z,94670.31
2023-10-14T10:31:26.350Z,94675.59
2023-10-14T10:33:53.900Z,94666.34
2023-10-14T10:36:04.801Z,94652.22
2023-10-14T10:38:12.060Z,94653.03
2023-10-14T10:40:18.465Z,94645.22
2023-10-14T10:42:21.562Z,94646.72
2023-10-14T10:44:26.110Z,94642.50
2023-10-14T10:46:42.960Z,94629.91
2023-10-14T10:48:47.205Z,94628.84
2023-10-14T10:50:52.751Z,94631.31
2023-10-14T10:53:10.219Z,94627.69
2023-10-14T10:55:12.405Z,94629.34
2023-10-14T10:57:14.589Z,94628.59
2023-10-14T10:59:17.234Z,94610.38
2023-10-14T11:01:21.169Z,94616.63
2023-10-14T11:03:24.847Z,94609.81
2023-10-14T11:05:29.480Z,94606.50
2023-10-14T11:07:33.942Z,94609.81
2023-10-14T11:09:41.031Z,94605.31
2023-10-14T11:11:43.049Z,94600.47
2023-10-14T11:13:45.011Z,94595.84
2023-10-14T11:15:50.212Z,94591.34
2023-10-14T11:17:58.892Z,94588.38
2023-10-14T11:20:01.149Z,94590.25
2023-10-14T11:22:05.670Z,94587.69
2023-10-14T11:24:10.364Z,94589.88
2023-10-14T11:26:19.852Z,94573.94
2023-10-14T11:28:27.899Z,94573.56
2023-10-14T11:30:32.689Z,94568.69
2023-10-14T11:32:35.676Z,94572.56
2023-10-14T11:34:37.973Z,94567.53
2023-10-14T11:36:45.336Z,94560.19
2023-10-14T11:38:50.402Z,94568.03
2023-10-14T11:40:54.022Z,94562.13
2023-10-14T11:42:57.465Z,94559.22
2023-10-14T11:44:59.441Z,94556.44
2023-10-14T11:47:08.615Z,94556.75
2023-10-14T11:49:15.399Z,94541.34
2023-10-14T11:51:21.531Z,94551.34
2023-10-14T11:53:32.723Z,94547.69
2023-10-14T11:55:34.785Z,94537.09
2023-10-14T11:57:36.640Z,94539.94
2023-10-14T11:59:43.847Z,94532.09
2023-10-14T12:01:47.259Z,94531.09
2023-10-14T12:03:50.772Z,94528.47
2023-10-14T12:06:00.442Z,94516.69
2023-10-14T12:08:02.866Z,94518.69
2023-10-14T12:10:07.595Z,94517.00
2023-10-14T12:12:09.947Z,94513.56
2023-10-14T12:14:16.927Z,94516.03
2023-10-14T12:16:19.833Z,94509.41
2023-10-14T12:18:22.256Z,94510.88
2023-10-14T12:20:26.035Z,94504.25
2023-10-14T12:22:27.948Z,94499.78
2023-10-14T12:24:29.852Z,94493.19
2023-10-14T12:26:38.886Z,94496.28
2023-10-14T12:28:42.526Z,94492.34
2023-10-14T12:30:47.908Z,94488.44
2023-10-14T12:32:50.561Z,94489.88
2023-10-14T12:34:54.278Z,94491.03
2023-10-14T12:36:56.233Z,94484.19
2023-10-14T12:38:58.086Z,94485.38
2023-10-14T12:41:03.785Z,94480.06
2023-10-14T12:43:07.049Z,94472.53
2023-10-14T12:45:14.531Z,94477.53
2023-10-14T12:47:16.718Z,94475.44
2023-10-14T12:49:24.399Z,94470.06
2023-10-14T12:51:34.839Z,94474.41
2023-10-14T12:53:37.573Z,94465.00
2023-10-14T12:55:43.355Z,94462.56
2023-10-14T12:57:46.803Z,94457.94
2023-10-14T12:59:49.138Z,94461.81
2023-10-14T13:02:00.826Z,94463.53
2023-10-14T13:04:07.190Z,94454.75
2023-10-14T13:06:10.334Z,94452.38
2023-10-14T13:08:12.238Z,94455.13
2023-10-14T13:10:19.883Z,94450.06
2023-10-14T13:12:21.804Z,94449.78
2023-10-14T13:14:30.313Z,94442.81
2023-10-14T13:16:33.122Z,94440.69
2023-10-14T13:18:35.158Z,94436.69
2023-10-14T13:20:38.425Z,94431.56
2023-10-14T13:22:41.193Z,94435.03
2023-10-14T13:24:51.680Z,94431.00
2023-10-14T13:26:53.656Z,94434.41
2023-10-14T13:28:56.915Z,94425.28
2023-10-14T13:31:00.115Z,94429.38
2023-10-14T13:33:02.336Z,94434.47
2023-10-14T13:35:06.957Z,94424.50
2023-10-14T13:37:10.619Z,94431.25
2023-10-14T13:39:19.274Z,94426.72
2023-10-14T13:41:25.735Z,94419.09
2023-10-14T13:43:28.024Z,94420.44
2023-10-14T13:45:29.871Z,94421.72
2023-10-14T13:47:33.101Z,94419.09
2023-10-14T13:49:35.910Z,94413.31
2023-10-14T13:51:37.880Z,94411.72
2023-10-14T13:53:46.200Z,94405.03
2023-10-14T13:55:54.938Z,94416.03
2023-10-14T13:57:58.594Z,94405.88
2023-10-14T14:00:01.071Z,94403.47
2023-10-14T14:02:04.766Z,94406.47
2023-10-14T14:04:10.006Z,94403.25
2023-10-14T14:06:12.198Z,94403.28
2023-10-14T14:08:15.091Z,94400.09
2023-10-14T14:10:18.016Z,94396.59
2023-10-14T14:12:21.400Z,94398.75
2023-10-14T14:14:26.815Z,94393.94
2023-10-14T14:16:28.942Z,94392.06
2023-10-14T14:18:31.002Z,94385.09
2023-10-14T14:20:33.703Z,94398.50
2023-10-14T14:22:37.595Z,94396.38
2023-10-14T14:24:39.439Z,94395.28
2023-10-14T14:26:41.385Z,94393.41
2023-10-14T14:28:44.138Z,94393.69
2023-10-14T14:30:51.283Z,94387.28
2023-10-14T14:32:55.159Z,94389.97
2023-10-14T14:34:57.005Z,94394.25
2023-10-14T14:36:59.224Z,94390.22
2023-10-14T14:39:03.322Z,94396.94
2023-10-14T14:41:05.411Z,94393.19
2023-10-14T14:43:07.307Z,94392.66
2023-10-14T14:45:29.667Z,94397.19
2023-10-14T14:47:31.621Z,94388.88
2023-10-14T14:49:34.093Z,94391.81
2023-10-14T14:51:35.957Z,94388.31
2023-10-14T14:53:38.239Z,94382.97
2023-10-14T14:55:44.413Z,94387.25
2023-10-14T14:57:51.316Z,94386.97
2023-10-14T14:59:58.248Z,94385.88
2023-10-14T15:02:03.641Z,94376.44
2023-10-14T15:04:08.422Z,94378.06
2023-10-14T15:06:10.144Z,94373.44
2023-10-14T15:08:14.334Z,94370.75
2023-10-14T15:10:16.425Z,94366.97
2023-10-14T15:12:18.267Z,94366.09
2023-10-14T15:14:20.117Z,94372.75
2023-10-14T15:16:37.331Z,94362.75
2023-10-14T15:18:45.085Z,94368.03
2023-10-14T15:20:47.172Z,94362.59
2023-10-14T15:22:50.494Z,94364.38
2023-10-14T15:24:55.354Z,94359.72
2023-10-14T15:26:57.452Z,94362.47
2023-10-14T15:28:59.323Z,94363.13
2023-10-14T15:31:02.782Z,94367.00
2023-10-14T15:33:08.471Z,94371.69
2023-10-14T15:35:17.768Z,94369.09
2023-10-14T15:37:20.026Z,94370.50
2023-10-14T15:39:38.658Z,94372.25
2023-10-14T15:41:40.677Z,94361.66
2023-10-14T15:43:42.910Z,94358.59
2023-10-14T15:45:46.246Z,94356.59
2023-10-14T15:47:48.862Z,94363.41
2023-10-14T15:49:52.261Z,94364.09
2023-10-14T15:51:54.682Z,94361.97
2023-10-14T15:54:02.133Z,94358.31
2023-10-14T15:56:04.419Z,94360.03
2023-10-14T15:58:07.718Z,94351.63
2023-10-14T16:00:16.236Z,94353.31
2023-10-14T16:02:18.109Z,94354.72
2023-10-14T16:04:21.149Z,94360.22
2023-10-14T16:06:24.895Z,94355.88
2023-10-14T16:08:26.633Z,94362.97
2023-10-14T16:10:30.193Z,94363.31
2023-10-14T16:12:34.438Z,94364.28
2023-10-14T16:14:36.439Z,94367.31
2023-10-14T16:16:38.354Z,94362.97
2023-10-14T16:18:40.263Z,94364.47
2023-10-14T16:20:47.675Z,94362.28
2023-10-14T16:22:51.318Z,94364.28
2023-10-14T16:24:55.342Z,94360.38
2023-10-14T16:26:57.179Z,94357.59
2023-10-14T16:29:04.562Z,94358.53
2023-10-14T16:31:14.167Z,94354.72
2023-10-14T16:33:16.493Z,94351.25
2023-10-14T16:35:20.404Z,94352.53
2023-10-14T16:37:22.218Z,94354.63
2023-10-14T16:39:24.157Z,94356.34
2023-10-14T16:41:26.600Z,94348.03
2023-10-14T16:43:28.605Z,94354.84
2023-10-14T16:45:32.580Z,94346.84
2023-10-14T16:47:34.423Z,94347.31
2023-10-14T16:49:36.365Z,94345.47
2023-10-14T16:51:39.055Z,94344.06
2023-10-14T16:53:43.814Z,94348.59
2023-10-14T16:55:47.408Z,94349.88
2023-10-14T16:57:50.567Z,94343.75
2023-10-14T16:59:52.473Z,94348.72
2023-10-14T17:01:54.518Z,94350.22
2023-10-14T17:04:01.000Z,94347.00
2023-10-14T17:06:04.554Z,94346.19
2023-10-14T17:08:09.554Z,94345.72
2023-10-14T17:10:15.973Z,94356.88
2023-10-14T17:12:20.861Z,94355.22
2023-10-14T17:14:22.839Z,94359.16
2023-10-14T17:16:24.995Z,94358.59
2023-10-14T17:18:27.262Z,94357.31
2023-10-14T17:20:31.538Z,94354.66
2023-10-14T17:22:35.907Z,94356.28
2023-10-14T17:24:38.970Z,94346.66
2023-10-14T17:26:41.346Z,94349.22
2023-10-14T17:28:44.756Z,94351.16
2023-10-14T17:30:46.565Z,94347.25
2023-10-14T17:32:48.805Z,94353.25
2023-10-14T17:34:50.562Z,94357.56
2023-10-14T17:36:52.509Z,94353.53
2023-10-14T17:38:56.168Z,94359.59
2023-10-14T17:40:57.718Z,94359.16
2023-10-14T17:43:05.992Z,94361.34
2023-10-14T17:45:09.957Z,94360.63
2023-10-14T17:47:12.368Z,94356.53
2023-10-14T17:49:15.454Z,94359.13
2023-10-14T17:51:17.624Z,94362.53
2023-10-14T17:53:20.987Z,94365.13
2023-10-14T17:55:24.606Z,94363.53
2023-10-14T17:57:26.303Z,94355.25
2023-10-14T17:59:29.995Z,94359.72
2023-10-14T18:01:32.472Z,94359.69
2023-10-14T18:03:34.913Z,94342.91
2023-10-14T18:05:46.797Z,94351.69
2023-10-14T18:07:49.140Z,94360.16
2023-10-14T18:09:51.045Z,94374.81
2023-10-14T18:11:53.704Z,94358.63
2023-10-14T18:13:56.392Z,94364.47
2023-10-14T18:15:58.496Z,94367.50
2023-10-14T18:18:00.909Z,94370.75
2023-10-14T18:20:04.058Z,94377.44
2023-10-14T18:22:06.648Z,94369.19
2023-10-14T18:24:11.772Z,94377.31
2023-10-14T18:26:15.347Z,94371.69
2023-10-14T18:28:17.241Z,94371.69
2023-10-14T18:30:22.159Z,94374.94
2023-10-14T18:32:24.200Z,94375.75
2023-10-14T18:34:25.990Z,94365.91
2023-10-14T18:36:29.813Z,94370.53
2023-10-14T18:38:31.975Z,94384.84
2023-10-14T18:40:34.156Z,94379.75
2023-10-14T18:42:37.759Z,94380.09
2023-10-14T18:44:40.356Z,94383.22
2023-10-14T18:46:43.009Z,94387.63
2023-10-14T18:48:47.015Z,94384.91
2023-10-14T18:50:50.085Z,94390.28
2023-10-14T18:52:53.293Z,94394.44
2023-10-14T18:54:55.432Z,94394.44
2023-10-14T18:56:57.252Z,94398.91
2023-10-14T18:58:59.131Z,94383.13
2023-10-14T19:01:01.254Z,94393.31
2023-10-14T19:03:06.190Z,94391.84
2023-10-14T19:05:09.766Z,94400.59
2023-10-14T19:07:15.787Z,94403.25
2023-10-14T19:09:23.169Z,94397.56
2023-10-14T19:11:26.147Z,94395.53
2023-10-14T19:13:29.930Z,94398.84
2023-10-14T19:15:33.797Z,94401.50
2023-10-14T19:17:36.938Z,94393.75
2023-10-14T19:19:38.776Z,94396.03
2023-10-14T19:21:40.791Z,94395.91
2023-10-14T19:23:44.212Z,94394.28
2023-10-14T19:25:49.892Z,94387.44
2023-10-14T19:27:52.295Z,94393.78
2023-10-14T19:29:54.358Z,94396.00
2023-10-14T19:31:57.354Z,94399.41
2023-10-14T19:33:59.728Z,94400.59
2023-10-14T19:36:06.823Z,94405.00
2023-10-14T19:38:09.648Z,94405.84
2023-10-14T19:40:16.526Z,94407.53
2023-10-14T19:42:18.567Z,94400.81
2023-10-14T19:44:22.469Z,94405.31
2023-10-14T19:46:25.305Z,94405.91
2023-10-14T19:48:31.124Z,94407.53
2023-10-14T19:50:34.045Z,94406.47
2023-10-14T19:52:40.924Z,94405.47
2023-10-14T19:54:43.116Z,94405.09
2023-10-14T19:56:45.088Z,94399.41
2023-10-14T19:58:46.914Z,94404.78
2023-10-14T20:00:51.206Z,94398.06
2023-10-14T20:03:03.262Z,94395.47
2023-10-14T20:05:06.106Z,94402.03
2023-10-14T20:07:09.454Z,94397.97
2023-10-14T20:09:11.948Z,94397.16
2023-10-14T20:11:15.006Z,94404.53
2023-10-14T20:13:18.405Z,94400.84
2023-10-14T20:15:21.938Z,94397.38
2023-10-14T20:17:23.920Z,94398.63
2023-10-14T20:19:25.850Z,94399.88
2023-10-14T20:21:29.830Z,94400.72
2023-10-14T20:23:37.048Z,94401.72
2023-10-14T20:25:41.795Z,94400.16
2023-10-14T20:27:43.631Z,94396.91
2023-10-14T20:29:45.445Z,94400.59
2023-10-14T20:31:47.694Z,94397.78
2023-10-14T20:33:52.895Z,94401.09
2023-10-14T20:35:56.940Z,94399.66
2023-10-14T20:38:01.852Z,94400.09
2023-10-14T20:40:06.422Z,94402.13
2023-10-14T20:42:12.381Z,94401.53
2023-10-14T20:44:15.846Z,94399.53
2023-10-14T20:46:20.924Z,94399.38
2023-10-14T20:48:22.688Z,94407.34
2023-10-14T20:50:28.872Z,94407.19
2023-10-14T20:52:32.508Z,94403.56
2023-10-14T20:54:34.300Z,94403.56
2023-10-14T20:56:37.911Z,94411.50
2023-10-14T20:58:39.823Z,94413.91
2023-10-14T21:00:41.779Z,94409.44
2023-10-14T21:02:44.451Z,94408.59
2023-10-14T21:04:47.358Z,94402.84
2023-10-14T21:06:54.338Z,94400.38
2023-10-14T21:08:58.018Z,94404.88
2023-10-14T21:10:59.989Z,94403.84
2023-10-14T21:13:02.295Z,94403.41
2023-10-14T21:15:04.528Z,94400.13
2023-10-14T21:17:06.530Z,94395.25
2023-10-14T21:19:12.134Z,94396.28
2023-10-14T21:21:17.205Z,94405.88
2023-10-14T21:23:20.127Z,94405.88
2023-10-14T21:25:23.277Z,94401.81
2023-10-14T21:27:25.165Z,94397.72
2023-10-14T21:29:27.135Z,94398.44
2023-10-14T21:31:29.184Z,94396.59
2023-10-14T21:33:32.869Z,94388.84
2023-10-14T21:35:35.635Z,94391.09
2023-10-14T21:37:39.652Z,94392.97
2023-10-14T21:39:43.249Z,94386.03
2023-10-14T21:41:45.579Z,94390.50
2023-10-14T21:43:49.907Z,94387.69
2023-10-14T21:45:52.558Z,94392.41
2023-10-14T21:47:54.736Z,94393.44
2023-10-14T21:49:58.142Z,94395.06
2023-10-14T21:52:00.078Z,94396.50
2023-10-14T21:54:01.900Z,94392.22
2023-10-14T21:56:05.454Z,94403.22
2023-10-14T21:58:08.929Z,94397.75
2023-10-14T22:00:15.702Z,94397.13
2023-10-14T22:02:17.620Z,94399.16
2023-10-14T22:04:20.213Z,94397.94
2023-10-14T22:06:23.453Z,94397.34
2023-10-14T22:08:26.472Z,94386.56
2023-10-14T22:10:31.100Z,94395.31
2023-10-14T22:12:32.863Z,94388.19
2023-10-14T22:14:37.941Z,94386.53
2023-10-14T22:16:42.876Z,94386.94
2023-10-14T22:18:52.287Z,94383.25
2023-10-14T22:20:55.129Z,94387.72
2023-10-14T22:22:58.236Z,94389.38
2023-10-14T22:25:00.078Z,94389.38
2023-10-14T22:27:06.168Z,94387.53
2023-10-14T22:29:08.083Z,94391.78
2023-10-14T22:31:11.905Z,94383.22
2023-10-14T22:33:14.200Z,94392.22
2023-10-14T22:35:20.949Z,94384.47
2023-10-14T22:37:35.976Z,94384.47
2023-10-14T22:39:39.654Z,94383.47
2023-10-14T22:41:44.244Z,94389.75
2023-10-14T22:43:46.244Z,94375.13
2023-10-14T22:45:49.418Z,94383.25
2023-10-14T22:47:54.100Z,94378.38
2023-10-14T22:49:57.038Z,94367.41
2023-10-14T22:51:58.858Z,94377.19
2023-10-14T22:54:00.868Z,94370.47
2023-10-14T22:56:07.463Z,94375.78
2023-10-14T22:58:10.310Z,94375.56
2023-10-14T23:00:13.647Z,94374.34
2023-10-14T23:02:17.361Z,94370.88
2023-10-14T23:04:19.393Z,94369.09
2023-10-14T23:06:23.041Z,94372.16
2023-10-14T23:08:24.875Z,94375.00
2023-10-14T23:10:27.997Z,94368.72
2023-10-14T23:12:30.317Z,94377.28
2023-10-14T23:14:34.101Z,94383.78
2023-10-14T23:16:38.859Z,94383.31
2023-10-14T23:18:40.834Z,94386.53
2023-10-14T23:20:43.542Z,94381.25
2023-10-14T23:22:46.634Z,94383.28
2023-10-14T23:24:49.625Z,94386.19
2023-10-14T23:26:51.824Z,94382.94
2023-10-14T23:28:55.072Z,94375.03
2023-10-14T23:30:57.240Z,94382.16
2023-10-14T23:33:01.898Z,94381.34
2023-10-14T23:35:10.488Z,94380.94
2023-10-14T23:37:12.411Z,94377.91
2023-10-14T23:39:18.590Z,94379.50
2023-10-14T23:41:20.420Z,94379.50
2023-10-14T23:43:22.368Z,94375.06
2023-10-14T23:45:28.989Z,94375.63
2023-10-14T23:47:32.313Z,94376.88
2023-10-14T23:49:35.548Z,94373.03
2023-10-14T23:51:37.397Z,94378.91
2023-10-14T23:53:39.817Z,94371.78
2023-10-14T23:55:45.039Z,94372.78
2023-10-14T23:57:47.238Z,94369.94
2023-10-14T23:59:49.845Z,94369.94
